createdAt,value
2022-08-22T00:03:15.513Z,17.35
2022-08-22T00:08:18.597Z,17.28
2022-08-22T00:13:32.341Z,17.26
2022-08-22T00:18:57.677Z,17.24
2022-08-22T00:24:08.353Z,17.20
2022-08-22T00:29:15.082Z,17.17
2022-08-22T00:34:24.515Z,17.14
2022-08-22T00:39:37.064Z,17.09
2022-08-22T00:44:50.326Z,17.07
2022-08-22T00:50:10.488Z,17.03
2022-08-22T00:55:14.845Z,16.98
2022-08-22T01:00:21.320Z,16.96
2022-08-22T01:05:22.620Z,16.97
2022-08-22T01:10:27.000Z,16.96
2022-08-22T01:15:29.933Z,16.95
2022-08-22T01:20:43.472Z,16.96
2022-08-22T01:26:11.887Z,16.95
2022-08-22T01:31:25.387Z,16.94
2022-08-22T01:36:45.193Z,16.93
2022-08-22T01:42:05.233Z,16.92
2022-08-22T01:47:15.346Z,16.91
2022-08-22T01:52:34.771Z,16.90
2022-08-22T01:57:55.908Z,16.89
2022-08-22T02:03:04.189Z,16.88
2022-08-22T02:08:17.132Z,16.89
2022-08-22T02:13:28.977Z,16.90
2022-08-22T02:18:41.821Z,16.91
2022-08-22T02:23:48.061Z,16.92
2022-08-22T02:28:58.918Z,16.95
2022-08-22T02:34:02.839Z,16.96
2022-08-22T02:39:04.174Z,16.94
2022-08-22T02:44:21.039Z,16.90
2022-08-22T02:49:22.404Z,16.85
2022-08-22T02:54:58.261Z,16.87
2022-08-22T03:00:31.819Z,16.88
2022-08-22T03:05:37.388Z,16.91
2022-08-22T03:10:40.878Z,16.89
2022-08-22T03:15:48.580Z,16.89
2022-08-22T03:21:20.356Z,16.85
2022-08-22T03:26:30.439Z,16.83
2022-08-22T03:31:32.209Z,16.78
2022-08-22T03:36:34.797Z,16.79
2022-08-22T03:41:36.145Z,16.82
2022-08-22T03:46:43.552Z,16.82
2022-08-22T03:51:44.844Z,16.82
2022-08-22T03:57:07.513Z,16.82
2022-08-22T04:02:42.337Z,16.79
2022-08-22T04:07:39.798Z,16.79
2022-08-22T04:12:44.072Z,16.77
2022-08-22T04:18:17.899Z,16.77
2022-08-22T04:23:28.669Z,16.74
2022-08-22T04:28:34.596Z,16.76
2022-08-22T04:33:59.490Z,16.79
2022-08-22T04:39:14.464Z,16.82
2022-08-22T04:44:37.184Z,16.87
2022-08-22T04:49:40.429Z,16.90
2022-08-22T04:54:41.762Z,16.96
2022-08-22T04:59:43.884Z,17.02
2022-08-22T05:04:46.990Z,17.08
2022-08-22T05:09:50.496Z,17.13
2022-08-22T05:14:54.606Z,17.16
2022-08-22T05:19:58.658Z,17.20
2022-08-22T05:25:02.432Z,17.26
2022-08-22T05:30:08.009Z,17.35
2022-08-22T05:35:09.890Z,17.42
2022-08-22T05:40:19.059Z,17.50
2022-08-22T05:45:21.116Z,17.58
2022-08-22T05:50:30.118Z,17.66
2022-08-22T05:55:43.886Z,17.77
2022-08-22T06:00:47.196Z,17.84
2022-08-22T06:05:51.836Z,17.96
2022-08-22T06:10:54.929Z,18.11
2022-08-22T06:16:13.989Z,18.25
2022-08-22T06:21:26.400Z,18.40
2022-08-22T06:26:31.209Z,18.52
2022-08-22T06:31:36.454Z,18.64
2022-08-22T06:36:39.029Z,18.66
2022-08-22T06:41:43.076Z,18.69
2022-08-22T06:46:49.493Z,18.74
2022-08-22T06:51:51.333Z,18.83
2022-08-22T06:56:54.174Z,18.91
2022-08-22T07:02:21.845Z,18.97
2022-08-22T07:07:25.301Z,19.04
2022-08-22T07:12:31.121Z,19.14
2022-08-22T07:17:32.740Z,19.26
2022-08-22T07:22:36.440Z,19.40
2022-08-22T07:27:48.926Z,19.53
2022-08-22T07:33:26.173Z,19.69
2022-08-22T07:38:32.273Z,19.84
2022-08-22T07:43:43.031Z,20.00
2022-08-22T07:49:05.838Z,20.18
2022-08-22T07:54:09.565Z,20.35
2022-08-22T07:59:17.437Z,20.46
2022-08-22T08:04:24.804Z,20.60
2022-08-22T08:09:28.305Z,20.82
2022-08-22T08:14:30.715Z,20.99
2022-08-22T08:19:34.340Z,21.10
2022-08-22T08:24:41.522Z,21.16
2022-08-22T08:29:56.099Z,21.29
2022-08-22T08:34:57.602Z,21.38
2022-08-22T08:40:01.905Z,21.42
2022-08-22T08:45:06.269Z,21.47
2022-08-22T08:50:22.513Z,21.47
2022-08-22T08:55:34.317Z,21.63
2022-08-22T09:00:42.042Z,21.84
2022-08-22T09:05:49.713Z,21.89
2022-08-22T09:10:51.058Z,21.92
2022-08-22T09:16:05.671Z,21.99
2022-08-22T09:21:23.850Z,22.11
2022-08-22T09:26:41.551Z,22.12
2022-08-22T09:31:54.033Z,22.16
2022-08-22T09:37:18.153Z,22.26
2022-08-22T09:42:28.605Z,22.43
2022-08-22T09:47:35.677Z,22.49
2022-08-22T09:52:46.828Z,22.69
2022-08-22T09:57:55.331Z,22.83
2022-08-22T10:03:12.197Z,22.91
2022-08-22T10:08:13.542Z,22.97
2022-08-22T10:13:34.886Z,22.95
2022-08-22T10:19:08.933Z,22.98
2022-08-22T10:24:30.623Z,23.29
2022-08-22T10:29:44.067Z,23.59
2022-08-22T10:34:48.621Z,23.57
2022-08-22T10:40:08.135Z,23.53
2022-08-22T10:45:35.751Z,23.41
2022-08-22T10:50:48.069Z,23.48
2022-08-22T10:55:51.817Z,23.47
2022-08-22T11:00:59.463Z,23.48
2022-08-22T11:06:08.216Z,23.44
2022-08-22T11:11:11.580Z,23.43
2022-08-22T11:16:14.258Z,23.47
2022-08-22T11:21:31.418Z,23.51
2022-08-22T11:26:47.748Z,23.50
2022-08-22T11:32:12.049Z,23.47
2022-08-22T11:37:42.587Z,23.49
2022-08-22T11:42:50.974Z,23.56
2022-08-22T11:48:07.394Z,23.75
2022-08-22T11:53:28.977Z,23.86
2022-08-22T11:58:49.173Z,24.00
2022-08-22T12:04:00.459Z,24.11
2022-08-22T12:09:11.923Z,24.07
2022-08-22T12:14:19.848Z,24.10
2022-08-22T12:19:34.310Z,24.17
2022-08-22T12:25:03.374Z,24.33
2022-08-22T12:30:13.011Z,24.38
2022-08-22T12:35:18.470Z,24.43
2022-08-22T12:40:28.186Z,24.43
2022-08-22T12:45:53.463Z,24.34
2022-08-22T12:51:04.317Z,24.35
2022-08-22T12:56:19.085Z,24.39
2022-08-22T13:01:23.223Z,24.39
2022-08-22T13:06:35.287Z,24.37
2022-08-22T13:11:39.911Z,24.40
2022-08-22T13:16:48.953Z,24.31
2022-08-22T13:21:59.140Z,24.13
2022-08-22T13:27:02.915Z,24.04
2022-08-22T13:32:08.223Z,23.93
2022-08-22T13:37:13.988Z,23.95
2022-08-22T13:42:27.654Z,23.84
2022-08-22T13:47:34.651Z,23.78
2022-08-22T13:52:42.897Z,23.82
2022-08-22T13:58:02.784Z,23.79
2022-08-22T14:03:15.103Z,23.71
2022-08-22T14:08:22.708Z,23.69
2022-08-22T14:13:32.830Z,23.59
2022-08-22T14:18:45.690Z,23.57
2022-08-22T14:23:51.790Z,23.58
2022-08-22T14:28:56.498Z,23.50
2022-08-22T14:33:59.927Z,23.42
2022-08-22T14:39:10.052Z,23.30
2022-08-22T14:44:17.443Z,23.14
2022-08-22T14:49:18.753Z,23.08
2022-08-22T14:54:21.937Z,23.00
2022-08-22T14:59:32.213Z,22.95
2022-08-22T15:04:38.997Z,22.95
2022-08-22T15:09:43.369Z,22.98
2022-08-22T15:14:52.234Z,23.02
2022-08-22T15:20:04.745Z,22.97
2022-08-22T15:25:19.331Z,22.88
2022-08-22T15:30:44.499Z,22.89
2022-08-22T15:35:46.462Z,22.84
2022-08-22T15:40:47.821Z,22.76
2022-08-22T15:45:51.342Z,22.70
2022-08-22T15:50:58.155Z,22.64
2022-08-22T15:56:05.051Z,22.56
2022-08-22T16:01:19.187Z,22.47
2022-08-22T16:06:40.565Z,22.51
2022-08-22T16:11:52.360Z,22.51
2022-08-22T16:16:56.166Z,22.44
2022-08-22T16:21:59.294Z,22.40
2022-08-22T16:27:14.547Z,22.29
2022-08-22T16:32:23.292Z,22.21
2022-08-22T16:37:41.585Z,22.17
2022-08-22T16:42:49.356Z,22.22
2022-08-22T16:47:58.071Z,22.28
2022-08-22T16:53:29.483Z,22.25
2022-08-22T16:58:58.915Z,22.19
2022-08-22T17:04:10.800Z,22.14
2022-08-22T17:09:30.971Z,22.14
2022-08-22T17:14:51.928Z,22.09
2022-08-22T17:20:10.979Z,21.98
2022-08-22T17:25:18.571Z,21.98
2022-08-22T17:30:23.351Z,21.93
2022-08-22T17:35:33.741Z,21.94
2022-08-22T17:40:38.235Z,21.93
2022-08-22T17:46:00.694Z,21.84
2022-08-22T17:51:11.194Z,21.78
2022-08-22T17:56:22.202Z,21.79
2022-08-22T18:01:35.852Z,21.75
2022-08-22T18:06:44.025Z,21.75
2022-08-22T18:12:01.320Z,21.72
2022-08-22T18:17:13.022Z,21.71
2022-08-22T18:22:20.266Z,21.65
2022-08-22T18:27:34.489Z,21.60
2022-08-22T18:32:37.009Z,21.55
2022-08-22T18:37:57.043Z,21.54
2022-08-22T18:43:16.175Z,21.47
2022-08-22T18:48:26.701Z,21.40
2022-08-22T18:53:46.776Z,21.35
2022-08-22T18:59:14.441Z,21.28
2022-08-22T19:04:29.353Z,21.26
2022-08-22T19:09:40.996Z,21.28
2022-08-22T19:14:48.124Z,21.29
2022-08-22T19:20:14.255Z,21.28
2022-08-22T19:25:25.821Z,21.26
2022-08-22T19:30:47.400Z,21.20
2022-08-22T19:35:51.705Z,21.17
2022-08-22T19:40:55.400Z,21.17
2022-08-22T19:46:00.700Z,21.18
2022-08-22T19:51:06.941Z,21.16
2022-08-22T19:56:12.656Z,21.13
2022-08-22T20:01:28.964Z,21.12
2022-08-22T20:06:45.499Z,21.09
2022-08-22T20:11:46.812Z,21.06
2022-08-22T20:17:00.102Z,21.03
2022-08-22T20:22:03.566Z,20.97
2022-08-22T20:27:16.309Z,20.91
2022-08-22T20:32:18.774Z,20.86
2022-08-22T20:37:36.094Z,20.80
2022-08-22T20:42:47.209Z,20.74
2022-08-22T20:47:50.915Z,20.69
2022-08-22T20:53:09.293Z,20.63
2022-08-22T20:58:22.608Z,20.56
2022-08-22T21:03:27.026Z,20.47
2022-08-22T21:08:28.345Z,20.43
2022-08-22T21:13:33.212Z,20.37
2022-08-22T21:18:36.167Z,20.32
2022-08-22T21:23:38.856Z,20.27
2022-08-22T21:28:53.470Z,20.22
2022-08-22T21:33:55.556Z,20.19
2022-08-22T21:38:59.236Z,20.16
2022-08-22T21:44:17.027Z,20.14
2022-08-22T21:49:23.107Z,20.12
2022-08-22T21:54:24.470Z,20.10
2022-08-22T21:59:50.840Z,20.06
2022-08-22T22:04:53.701Z,20.00
2022-08-22T22:09:55.522Z,19.91
2022-08-22T22:14:56.960Z,19.78
2022-08-22T22:19:58.315Z,19.74
2022-08-22T22:24:59.630Z,19.73
2022-08-22T22:30:01.139Z,19.74
2022-08-22T22:35:02.500Z,19.76
2022-08-22T22:40:07.316Z,19.79
2022-08-22T22:45:10.616Z,19.78
2022-08-22T22:50:11.999Z,19.78
2022-08-22T22:55:24.596Z,19.80
2022-08-22T23:00:31.432Z,19.76
2022-08-22T23:05:33.671Z,19.71
2022-08-22T23:10:35.160Z,19.70
2022-08-22T23:15:36.851Z,19.71
2022-08-22T23:20:38.196Z,19.69
2022-08-22T23:25:39.530Z,19.68
2022-08-22T23:30:41.014Z,19.63
2022-08-22T23:35:42.336Z,19.60
2022-08-22T23:40:43.699Z,19.58
2022-08-22T23:45:45.026Z,19.56
2022-08-22T23:50:46.378Z,19.53
2022-08-22T23:55:47.715Z,19.52
